Airfield :
LOGIN :

Register | Disclaimer

   EN    FR    IT 

 










Legend :    VFR   Marginal VFR   IFR   Intensive IFR   Very Intensive IFR
Visi :
Ceiling :
>= 8 km
>= 3000ft
5 to 8 km
1000 to 3000 ft
1500m to 5 km
500 to 1000 ft
800 to 1500m
200 to 500 ft
< 800m
< 200 ft
Symbols :   Thunderstorms  Fog  Heavy snow  Heavy precipitations  Wind > 20 kt
SIGMETs :     Misc.  Thunderstorms  Icing  Turbulence  Mountain Waves  Volcanic Ashes






- Airport Elevation : 1187 ft


LIBV - Gioia del Colle Bari

CURRENT METAR :
  • 301455Z 06005KT 9999 SCT035 31/21 Q1012

EXPIRED METARs :
  • 301355Z 13006KT 9999 FEW030TCU SCT045 32/20 Q1012
  • 301255Z 17007KT 9999 FEW030CB SCT050 32/17 Q1012 RMK BKN VIS MIN 9999 WIND THR32 17009KT WIND THR14 17007KT BLU

TAF TAF LIBV
Valid from the 30 at 15:00 until the 01 at 00:00 UTC


301400Z 3015/3024 18008KT 9999 FEW035CB SCT050
PROB30
TEMPO 3015/3017 15015KT 6000 TSRA FEW030CB SCT040
BECMG 3017/3019 21007KT CAVOK



MET'MAP, your aeronautical weather chart ! - Copyright ORBIFLY December 2007 - Disclaimer

ORBIFLY MET'MAP TEAM :

Programming & Development : Alexandra Zaïnal
Original concept : Baudouin d'Aumeries
Technical & hardware support : Manuel Goepfert
Assistance : Marc-Olivier Méhu




SOURCES & CREDITS :

   NOAA